Time;durP1;ratioP1;P1;durP2;ratioP2;P2;SDS_P1;SDS_P2;PMS_P1;PMS_P2;Temp;Humidity;BMP_temperature;BMP_pressure;BME280_temperature;BME280_humidity;BME280_pressure;Samples;Min_cycle;Max_cycle;Signal;HPM_P1;HPM_P2
2022/11/14 00:00:21;;;;;;;38.35;20.88;;;7.30;95.40;;;;;;5070641;28;20139;-74
2022/11/14 00:02:47;;;;;;;41.13;21.75;;;7.30;95.50;;;;;;5067486;28;20100;-74
2022/11/14 00:05:12;;;;;;;39.20;20.80;;;7.30;95.40;;;;;;5066634;28;20036;-75
2022/11/14 00:07:38;;;;;;;35.70;21.77;;;7.30;95.40;;;;;;5068561;28;20044;-74
2022/11/14 00:10:04;;;;;;;38.22;21.05;;;7.30;95.40;;;;;;5070236;28;20033;-74
2022/11/14 00:12:29;;;;;;;38.17;21.85;;;7.30;95.40;;;;;;5072283;28;20345;-73
2022/11/14 00:14:55;;;;;;;33.88;21.85;;;7.30;95.30;;;;;;5069685;28;20025;-74
2022/11/14 00:17:20;;;;;;;34.40;21.15;;;7.20;95.20;;;;;;5066633;28;20029;-79
2022/11/14 00:19:46;;;;;;;37.17;20.90;;;7.20;95.20;;;;;;5069744;28;20025;-74
2022/11/14 00:22:11;;;;;;;35.70;21.45;;;7.20;95.20;;;;;;5065866;28;20037;-74
2022/11/14 00:24:37;;;;;;;33.20;21.10;;;7.20;95.10;;;;;;5070812;28;20094;-73
2022/11/14 00:27:02;;;;;;;32.38;19.58;;;7.20;95.00;;;;;;5067030;28;20043;-74
2022/11/14 00:29:28;;;;;;;32.92;19.20;;;7.20;95.00;;;;;;5066191;28;20081;-75
2022/11/14 00:31:53;;;;;;;33.72;20.55;;;7.10;94.90;;;;;;5072630;28;20032;-74
2022/11/14 00:34:19;;;;;;;34.20;20.40;;;7.10;95.00;;;;;;5063257;28;20046;-74
2022/11/14 00:36:44;;;;;;;38.60;21.83;;;7.10;94.90;;;;;;5065159;28;20036;-73
2022/11/14 00:39:13;;;;;;;34.15;20.55;;;7.10;94.90;;;;;;5065477;28;20021;-74
2022/11/14 00:41:40;;;;;;;36.60;21.85;;;7.10;94.90;;;;;;5071141;28;20123;-73
2022/11/14 00:44:05;;;;;;;33.13;20.77;;;7.10;94.90;;;;;;5066760;28;20110;-74
2022/11/14 00:46:31;;;;;;;31.17;19.27;;;7.10;95.00;;;;;;5071625;28;20126;-75
2022/11/14 00:48:56;;;;;;;33.88;20.45;;;7.10;94.80;;;;;;5071254;28;20216;-74
2022/11/14 00:51:22;;;;;;;34.85;19.83;;;7.10;94.90;;;;;;5074545;28;20038;-75
2022/11/14 00:53:47;;;;;;;33.45;20.40;;;7.10;94.80;;;;;;5070595;28;20541;-74
2022/11/14 00:56:13;;;;;;;35.70;20.90;;;7.10;94.80;;;;;;5073300;28;20043;-74
2022/11/14 00:58:38;;;;;;;37.13;20.73;;;7.00;94.90;;;;;;5062982;28;20113;-74
2022/11/14 01:01:04;;;;;;;35.38;20.83;;;7.00;94.80;;;;;;5073026;28;20099;-74
2022/11/14 01:03:29;;;;;;;36.83;20.17;;;7.10;94.90;;;;;;5072627;28;20032;-74
2022/11/14 01:05:55;;;;;;;38.70;21.30;;;7.00;94.80;;;;;;5074703;28;20044;-73
2022/11/14 01:08:20;;;;;;;35.05;20.25;;;6.90;94.90;;;;;;5070508;28;20496;-74
2022/11/14 01:10:49;;;;;;;35.83;21.38;;;7.00;94.90;;;;;;5074452;28;20048;-73
2022/11/14 01:13:16;;;;;;;37.70;20.80;;;6.90;94.90;;;;;;5070654;28;20036;-73
2022/11/14 01:15:47;;;;;;;34.70;19.90;;;7.00;95.00;;;;;;5068714;28;20035;-75
2022/11/14 01:18:14;;;;;;;;;;;6.90;94.90;;;;;;5071475;28;20435;-75
2022/11/14 01:20:42;;;;;;;38.03;21.05;;;6.90;94.80;;;;;;5071433;28;20014;-74
2022/11/14 01:23:09;;;;;;;34.40;21.10;;;6.90;94.80;;;;;;5070651;28;20419;-74
2022/11/14 01:25:36;;;;;;;36.00;20.27;;;6.90;94.90;;;;;;5073799;28;20052;-75
2022/11/14 01:28:10;;;;;;;35.70;21.15;;;6.90;94.70;;;;;;5070815;28;20489;-74
2022/11/14 01:30:36;;;;;;;36.55;20.67;;;6.90;94.90;;;;;;5068630;28;20489;-73
2022/11/14 01:33:02;;;;;;;36.92;21.38;;;6.90;94.80;;;;;;5080518;28;20058;-74
2022/11/14 01:35:27;;;;;;;35.00;20.17;;;6.90;94.90;;;;;;5070447;28;20098;-75
2022/11/14 01:37:53;;;;;;;36.10;20.30;;;6.90;94.80;;;;;;5069799;28;20420;-75
2022/11/14 01:40:19;;;;;;;40.17;21.35;;;6.90;94.80;;;;;;5071618;28;20066;-74
2022/11/14 01:43:15;;;;;;;35.95;20.70;;;6.90;94.80;;;;;;5065252;28;20037;-73
2022/11/14 01:45:54;;;;;;;36.53;20.90;;;6.90;94.70;;;;;;5069208;28;20033;-73
2022/11/14 01:48:26;;;;;;;36.30;20.52;;;6.90;94.70;;;;;;5057428;28;20102;-73
2022/11/14 01:50:57;;;;;;;39.65;21.58;;;6.90;94.60;;;;;;5067326;28;20044;-74
2022/11/14 01:53:23;;;;;;;37.92;21.23;;;6.80;94.60;;;;;;5072947;28;20040;-74
2022/11/14 01:55:49;;;;;;;41.70;20.77;;;6.90;94.70;;;;;;5071403;28;20032;-74
2022/11/14 01:58:15;;;;;;;38.45;21.17;;;6.80;94.60;;;;;;5073892;28;20391;-74
2022/11/14 02:00:42;;;;;;;34.88;20.52;;;6.80;94.60;;;;;;5068423;28;20025;-74
2022/11/14 02:03:09;;;;;;;40.45;21.90;;;6.80;94.60;;;;;;5067829;28;20643;-74
2022/11/14 02:05:36;;;;;;;40.30;21.70;;;6.80;94.60;;;;;;5072787;28;20024;-76
2022/11/14 02:08:01;;;;;;;36.40;22.17;;;6.80;94.50;;;;;;5064791;28;20052;-78
2022/11/14 02:10:27;;;;;;;38.47;21.75;;;6.80;94.50;;;;;;5070551;28;20111;-74
2022/11/14 02:12:53;;;;;;;42.78;21.48;;;6.80;94.60;;;;;;5071750;28;20089;-76
2022/11/14 02:15:18;;;;;;;33.33;20.88;;;6.80;94.60;;;;;;5072477;28;20070;-74
2022/11/14 02:17:44;;;;;;;40.03;21.55;;;6.80;94.60;;;;;;5073205;28;20028;-74
2022/11/14 02:20:18;;;;;;;38.53;21.63;;;6.80;94.50;;;;;;5071259;28;20048;-74
2022/11/14 02:22:43;;;;;;;38.40;21.25;;;6.80;94.50;;;;;;5065542;28;20021;-75
2022/11/14 02:25:11;;;;;;;37.67;21.13;;;6.80;94.60;;;;;;5070041;28;20480;-74
2022/11/14 02:27:39;;;;;;;36.10;19.70;;;6.80;94.60;;;;;;5070713;28;20055;-78
2022/11/14 02:30:07;;;;;;;34.78;19.67;;;6.70;94.60;;;;;;5071375;28;20033;-74
2022/11/14 02:32:33;;;;;;;40.88;22.08;;;6.70;94.60;;;;;;5073331;28;20036;-73
2022/11/14 02:34:58;;;;;;;42.10;23.27;;;6.70;94.70;;;;;;5071273;28;20047;-73
2022/11/14 02:37:24;;;;;;;40.80;22.90;;;6.70;94.70;;;;;;5072928;28;20028;-73
2022/11/14 02:39:49;;;;;;;36.35;21.27;;;6.80;94.80;;;;;;5071610;28;20040;-74
2022/11/14 02:42:15;;;;;;;41.13;22.98;;;6.70;94.70;;;;;;5071359;28;20046;-73
2022/11/14 02:44:40;;;;;;;42.05;23.35;;;6.70;94.80;;;;;;5068859;28;20086;-74
2022/11/14 02:47:06;;;;;;;39.20;19.33;;;6.70;94.80;;;;;;5072846;28;20041;-73
2022/11/14 02:49:31;;;;;;;39.45;21.77;;;6.70;94.80;;;;;;5073499;28;20408;-73
2022/11/14 02:51:57;;;;;;;41.65;22.88;;;6.70;94.80;;;;;;5073115;28;20028;-73
2022/11/14 02:54:22;;;;;;;36.15;19.00;;;6.70;94.90;;;;;;5065412;28;20023;-75
2022/11/14 02:56:48;;;;;;;38.15;22.10;;;6.70;94.90;;;;;;5071827;28;20029;-73
2022/11/14 02:59:13;;;;;;;41.55;23.17;;;6.70;94.90;;;;;;5069689;28;20421;-75
2022/11/14 03:01:39;;;;;;;43.80;23.67;;;6.70;94.90;;;;;;5072159;28;20036;-73
2022/11/14 03:04:04;;;;;;;46.90;25.27;;;6.70;95.00;;;;;;5069082;28;20025;-74
2022/11/14 03:06:30;;;;;;;42.83;22.33;;;6.70;95.10;;;;;;5085924;28;20033;-73
2022/11/14 03:08:55;;;;;;;46.88;23.58;;;6.70;95.00;;;;;;5070554;28;20041;-74
2022/11/14 03:11:21;;;;;;;44.92;23.65;;;6.60;95.00;;;;;;5072536;28;20045;-74
2022/11/14 03:13:46;;;;;;;45.10;23.42;;;6.70;95.10;;;;;;5069229;28;20039;-74
2022/11/14 03:16:13;;;;;;;44.80;23.52;;;6.60;95.00;;;;;;5074044;28;20076;-73
2022/11/14 03:18:38;;;;;;;50.33;24.73;;;6.60;95.10;;;;;;5069682;28;20420;-74
2022/11/14 03:21:10;;;;;;;45.80;25.50;;;6.70;95.10;;;;;;5071790;28;20036;-74
2022/11/14 03:23:36;;;;;;;43.40;24.60;;;6.60;95.10;;;;;;5076348;28;20040;-73
2022/11/14 03:26:03;;;;;;;42.97;24.05;;;6.60;95.20;;;;;;5071728;28;20055;-73
2022/11/14 03:28:28;;;;;;;38.08;19.70;;;6.60;95.20;;;;;;5070172;28;20043;-75
2022/11/14 03:30:54;;;;;;;42.95;22.83;;;6.60;95.10;;;;;;5071989;28;20029;-75
2022/11/14 03:33:20;;;;;;;48.25;23.90;;;6.60;95.10;;;;;;5069991;28;20051;-74
2022/11/14 03:35:45;;;;;;;48.42;25.58;;;6.60;95.20;;;;;;5068465;28;20468;-74
2022/11/14 03:38:11;;;;;;;44.60;22.55;;;6.60;95.20;;;;;;5070976;28;20024;-73
2022/11/14 03:40:40;;;;;;;46.45;25.08;;;6.60;95.20;;;;;;5070576;28;20404;-74
2022/11/14 03:43:05;;;;;;;45.03;24.58;;;6.60;95.30;;;;;;5053551;28;20098;-73
2022/11/14 03:45:31;;;;;;;43.28;23.38;;;6.60;95.30;;;;;;5070666;28;20667;-74
2022/11/14 03:47:56;;;;;;;45.33;24.15;;;6.60;95.30;;;;;;5069545;28;20044;-74
2022/11/14 03:50:22;;;;;;;48.20;25.42;;;6.60;95.30;;;;;;5070739;28;20072;-75
2022/11/14 03:52:48;;;;;;;52.45;24.95;;;6.60;95.20;;;;;;5070759;28;20143;-74
2022/11/14 03:55:14;;;;;;;49.70;24.52;;;6.60;95.30;;;;;;5071464;28;20036;-73
2022/11/14 03:57:39;;;;;;;45.33;24.52;;;6.70;95.30;;;;;;5070824;28;20028;-77
2022/11/14 04:00:06;;;;;;;45.55;24.40;;;6.60;95.20;;;;;;5070315;28;20039;-75
2022/11/14 04:02:31;;;;;;;48.85;25.08;;;6.60;95.20;;;;;;5070770;28;20024;-75
2022/11/14 04:04:56;;;;;;;46.25;25.65;;;6.60;95.20;;;;;;5071238;28;20544;-73
2022/11/14 04:07:22;;;;;;;47.78;25.92;;;6.60;95.20;;;;;;5068805;28;20040;-73
2022/11/14 04:09:47;;;;;;;46.78;25.90;;;6.60;95.30;;;;;;5069624;28;20325;-74
2022/11/14 04:12:13;;;;;;;48.25;23.98;;;6.60;95.20;;;;;;5071054;28;20035;-74
2022/11/14 04:14:38;;;;;;;46.47;26.02;;;6.60;95.30;;;;;;5067595;28;20425;-73
2022/11/14 04:17:04;;;;;;;51.25;25.63;;;6.60;95.30;;;;;;5060484;28;20033;-74
2022/11/14 04:19:29;;;;;;;51.30;26.25;;;6.60;95.30;;;;;;5066441;28;20448;-76
2022/11/14 04:21:55;;;;;;;57.65;26.92;;;6.60;95.40;;;;;;5074456;28;20041;-76
2022/11/14 04:24:20;;;;;;;50.65;26.95;;;6.60;95.30;;;;;;5073823;28;20107;-73
2022/11/14 04:26:45;;;;;;;52.90;27.48;;;6.60;95.30;;;;;;5075839;28;20036;-74
2022/11/14 04:29:11;;;;;;;49.97;25.95;;;6.60;95.40;;;;;;5072238;28;20446;-74
2022/11/14 04:31:36;;;;;;;50.58;27.30;;;6.60;95.40;;;;;;5075046;28;20039;-74
2022/11/14 04:34:02;;;;;;;50.70;26.88;;;6.60;95.40;;;;;;5073892;28;20032;-73
2022/11/14 04:36:27;;;;;;;50.30;26.40;;;6.60;95.40;;;;;;5075754;28;20111;-73
2022/11/14 04:38:53;;;;;;;53.60;26.75;;;6.60;95.40;;;;;;5072545;28;20031;-73
2022/11/14 04:41:18;;;;;;;51.72;26.17;;;6.60;95.40;;;;;;5073135;28;20081;-74
2022/11/14 04:43:44;;;;;;;53.97;27.48;;;6.60;95.40;;;;;;5072264;28;20060;-73
2022/11/14 04:46:09;;;;;;;48.65;24.98;;;6.60;95.40;;;;;;5075193;28;20049;-73
2022/11/14 04:48:35;;;;;;;47.92;25.13;;;6.60;95.40;;;;;;5074258;28;20059;-74
2022/11/14 04:51:00;;;;;;;53.17;28.55;;;6.60;95.40;;;;;;5077535;28;20032;-75
2022/11/14 04:53:26;;;;;;;53.00;26.45;;;6.60;95.40;;;;;;5083293;28;20119;-73
2022/11/14 04:55:51;;;;;;;55.70;29.25;;;6.60;95.50;;;;;;5080497;28;20040;-73
2022/11/14 04:58:17;;;;;;;54.10;27.45;;;6.60;95.40;;;;;;5072648;28;20036;-73
2022/11/14 05:00:42;;;;;;;51.92;26.17;;;6.60;95.40;;;;;;5070936;28;20449;-74
2022/11/14 05:03:07;;;;;;;55.90;28.70;;;6.60;95.40;;;;;;5072733;28;20040;-73
2022/11/14 05:05:33;;;;;;;53.42;26.98;;;6.60;95.40;;;;;;5075904;28;20032;-74
2022/11/14 05:07:58;;;;;;;51.72;28.17;;;6.60;95.30;;;;;;5074224;28;20040;-75
2022/11/14 05:10:24;;;;;;;53.92;28.15;;;6.60;95.30;;;;;;5073669;28;20178;-75
2022/11/14 05:12:53;;;;;;;55.40;28.65;;;6.60;95.40;;;;;;5076915;28;20036;-79
2022/11/14 05:15:18;;;;;;;53.22;28.58;;;6.50;95.30;;;;;;5072547;28;20064;-73
2022/11/14 05:17:44;;;;;;;53.25;27.02;;;6.60;95.40;;;;;;5081382;28;20082;-74
2022/11/14 05:20:10;;;;;;;55.35;28.98;;;6.60;95.40;;;;;;5074237;28;20082;-73
2022/11/14 05:22:35;;;;;;;57.92;29.42;;;6.50;95.40;;;;;;5067740;28;20032;-74
2022/11/14 05:25:01;;;;;;;53.40;29.27;;;6.60;95.50;;;;;;5068428;28;20039;-74
2022/11/14 05:27:28;;;;;;;56.38;28.98;;;6.50;95.40;;;;;;5073400;28;20036;-74
2022/11/14 05:29:54;;;;;;;51.75;27.60;;;6.50;95.50;;;;;;5071467;28;20029;-73
2022/11/14 05:32:20;;;;;;;51.65;27.17;;;6.50;95.50;;;;;;5073014;28;20376;-72
2022/11/14 05:34:46;;;;;;;58.40;28.73;;;6.50;95.60;;;;;;5064962;28;20427;-73
2022/11/14 05:37:11;;;;;;;55.70;28.67;;;6.50;95.50;;;;;;5066355;28;20041;-72
2022/11/14 05:39:37;;;;;;;56.50;28.27;;;6.50;95.60;;;;;;5066733;28;20037;-73
2022/11/14 05:42:02;;;;;;;51.85;27.40;;;6.50;95.50;;;;;;5071398;28;20066;-72
2022/11/14 05:44:28;;;;;;;51.55;27.30;;;6.50;95.50;;;;;;5072574;28;20115;-74
2022/11/14 05:46:53;;;;;;;49.65;27.42;;;6.50;95.50;;;;;;5073848;28;20059;-72
2022/11/14 05:49:19;;;;;;;54.45;28.50;;;6.50;95.40;;;;;;5071095;28;20067;-71
2022/11/14 05:51:44;;;;;;;55.42;28.10;;;6.50;95.50;;;;;;5073144;28;20032;-72
2022/11/14 05:54:10;;;;;;;55.08;27.92;;;6.40;95.40;;;;;;5070347;28;20032;-71
2022/11/14 05:56:35;;;;;;;52.65;27.77;;;6.50;95.40;;;;;;5072388;28;20365;-72
2022/11/14 05:59:01;;;;;;;55.70;27.75;;;6.40;95.50;;;;;;5065850;28;20359;-73
2022/11/14 06:01:26;;;;;;;53.88;27.42;;;6.40;95.50;;;;;;5067040;28;20157;-72
2022/11/14 06:03:52;;;;;;;52.53;27.30;;;6.40;95.50;;;;;;5067444;28;20025;-71
2022/11/14 06:06:20;;;;;;;52.85;27.88;;;6.40;95.50;;;;;;5062218;28;20036;-74
2022/11/14 06:08:46;;;;;;;56.75;27.58;;;6.40;95.60;;;;;;5066408;28;20033;-76
2022/11/14 06:11:15;;;;;;;50.08;27.13;;;6.40;95.60;;;;;;5066778;28;20047;-73
2022/11/14 06:13:41;;;;;;;53.60;27.63;;;6.40;95.60;;;;;;5067114;28;20032;-71
2022/11/14 06:16:09;;;;;;;51.10;27.08;;;6.30;95.60;;;;;;5073483;28;20035;-73
2022/11/14 06:18:36;;;;;;;52.17;27.02;;;6.40;95.60;;;;;;5069142;28;20025;-72
2022/11/14 06:21:05;;;;;;;55.33;28.27;;;6.30;95.60;;;;;;5073142;28;20032;-73
2022/11/14 06:23:30;;;;;;;53.78;27.65;;;6.30;95.60;;;;;;5071569;28;20388;-72
2022/11/14 06:26:01;;;;;;;56.38;29.00;;;6.30;95.50;;;;;;5064382;28;20028;-71
2022/11/14 06:28:27;;;;;;;50.90;28.60;;;6.40;95.60;;;;;;5063986;28;20036;-72
2022/11/14 06:30:59;;;;;;;56.60;26.73;;;6.40;95.60;;;;;;5070196;28;20044;-72
2022/11/14 06:33:32;;;;;;;49.80;25.48;;;6.40;95.60;;;;;;5068788;28;20028;-72
2022/11/14 06:35:59;;;;;;;53.58;28.67;;;6.30;95.60;;;;;;5069421;28;20037;-74
2022/11/14 06:38:25;;;;;;;55.42;27.35;;;6.30;95.70;;;;;;5063409;28;20029;-72
2022/11/14 06:40:50;;;;;;;55.70;28.55;;;6.30;95.60;;;;;;5069357;28;20039;-72
2022/11/14 06:43:16;;;;;;;56.45;28.65;;;6.30;95.70;;;;;;5065434;28;20028;-72
2022/11/14 06:45:41;;;;;;;49.22;24.88;;;6.30;95.70;;;;;;5070194;28;20037;-73
2022/11/14 06:48:07;;;;;;;59.17;27.92;;;6.20;95.50;;;;;;5074747;28;20028;-72
2022/11/14 06:50:32;;;;;;;52.38;28.23;;;6.20;95.60;;;;;;5072588;28;20032;-74
2022/11/14 06:52:58;;;;;;;50.45;26.05;;;6.30;95.60;;;;;;5072271;28;20055;-72
2022/11/14 06:55:24;;;;;;;49.05;27.58;;;6.30;95.50;;;;;;5070384;28;20385;-74
2022/11/14 06:57:53;;;;;;;53.00;26.25;;;6.20;95.40;;;;;;5072634;28;20028;-72
2022/11/14 07:00:20;;;;;;;48.85;25.60;;;6.20;95.40;;;;;;5081239;28;20031;-73
2022/11/14 07:02:46;;;;;;;49.88;23.90;;;6.30;95.40;;;;;;5063753;28;20043;-71
2022/11/14 07:05:12;;;;;;;43.80;25.42;;;6.20;95.10;;;;;;5067717;28;20115;-71
2022/11/14 07:07:37;;;;;;;53.90;27.65;;;6.20;95.10;;;;;;5065366;28;20557;-73
2022/11/14 07:10:03;;;;;;;56.70;26.95;;;6.30;95.10;;;;;;5079598;28;20507;-74
2022/11/14 07:12:29;;;;;;;50.10;24.60;;;6.30;95.00;;;;;;5067106;28;21642;-73
2022/11/14 07:14:54;;;;;;;44.90;25.30;;;6.30;95.20;;;;;;5066397;28;20037;-72
2022/11/14 07:17:20;;;;;;;51.40;27.15;;;6.30;95.20;;;;;;5068918;28;20028;-72
2022/11/14 07:19:45;;;;;;;51.63;26.48;;;6.30;95.20;;;;;;5070335;28;20086;-71
2022/11/14 07:22:11;;;;;;;53.17;27.38;;;6.40;95.30;;;;;;5068749;28;20506;-71
2022/11/14 07:24:36;;;;;;;47.22;26.52;;;6.30;95.20;;;;;;5068728;28;20032;-71
2022/11/14 07:27:07;;;;;;;57.85;28.45;;;6.30;95.30;;;;;;5070049;28;20025;-73
2022/11/14 07:29:32;;;;;;;54.00;27.88;;;6.30;95.20;;;;;;5064644;28;20036;-71
2022/11/14 07:31:58;;;;;;;58.92;29.23;;;6.30;95.30;;;;;;5063580;28;20380;-70
2022/11/14 07:34:23;;;;;;;49.60;26.70;;;6.30;95.40;;;;;;5065130;28;20642;-69
2022/11/14 07:36:49;;;;;;;50.65;25.85;;;6.40;95.40;;;;;;5064363;28;20040;-73
2022/11/14 07:39:15;;;;;;;52.42;26.88;;;6.30;95.10;;;;;;5066899;28;20116;-72
2022/11/14 07:41:40;;;;;;;54.75;26.92;;;6.30;95.20;;;;;;5067352;28;20036;-72
2022/11/14 07:44:06;;;;;;;57.97;28.42;;;6.40;95.20;;;;;;5063036;28;20025;-76
2022/11/14 07:46:31;;;;;;;51.30;28.02;;;6.30;95.10;;;;;;5062681;28;20083;-74
2022/11/14 07:48:57;;;;;;;53.13;27.35;;;6.40;95.20;;;;;;5068986;28;20052;-72
2022/11/14 07:51:22;;;;;;;54.47;29.17;;;6.30;95.30;;;;;;5069737;28;20059;-77
2022/11/14 07:53:52;;;;;;;57.05;27.75;;;6.30;95.20;;;;;;5077377;28;20108;-74
2022/11/14 07:56:19;;;;;;;60.20;28.42;;;6.30;95.10;;;;;;5069608;28;20025;-74
2022/11/14 07:58:44;;;;;;;58.42;28.35;;;6.30;95.30;;;;;;5066969;28;20071;-72
2022/11/14 08:01:11;;;;;;;49.10;26.58;;;6.30;95.20;;;;;;5071128;28;20484;-72
2022/11/14 08:03:37;;;;;;;56.95;27.83;;;6.20;95.20;;;;;;5064960;28;20033;-72
2022/11/14 08:06:14;;;;;;;52.00;28.02;;;6.20;95.20;;;;;;5075650;28;20032;-72
2022/11/14 08:08:39;;;;;;;51.67;26.48;;;6.20;95.30;;;;;;5070565;28;20390;-72
2022/11/14 08:11:05;;;;;;;52.75;27.10;;;6.30;95.10;;;;;;5073428;28;20040;-73
2022/11/14 08:13:31;;;;;;;53.38;26.58;;;6.30;95.20;;;;;;5069254;28;20059;-73
2022/11/14 08:15:56;;;;;;;56.65;27.10;;;6.40;95.20;;;;;;5077178;28;20054;-73
2022/11/14 08:18:22;;;;;;;51.30;26.65;;;6.40;95.10;;;;;;5070116;28;20044;-72
2022/11/14 08:20:47;;;;;;;49.30;25.48;;;6.40;95.10;;;;;;5072549;28;20028;-72
2022/11/14 08:23:14;;;;;;;52.28;24.55;;;6.50;95.00;;;;;;5072774;28;20032;-73
2022/11/14 08:25:40;;;;;;;57.00;27.30;;;6.40;94.70;;;;;;5081499;28;20032;-72
2022/11/14 08:28:05;;;;;;;52.15;26.65;;;6.50;94.80;;;;;;5068100;28;20029;-72
2022/11/14 08:30:31;;;;;;;51.90;26.95;;;6.50;94.70;;;;;;5067236;28;20317;-71
2022/11/14 08:33:01;;;;;;;56.20;26.35;;;6.40;94.70;;;;;;5066509;28;20461;-72
2022/11/14 08:35:26;;;;;;;50.83;26.45;;;6.40;94.70;;;;;;5069368;28;20448;-72
2022/11/14 08:37:52;;;;;;;53.15;26.88;;;6.50;94.80;;;;;;5064894;28;20075;-73
2022/11/14 08:40:17;;;;;;;50.60;26.58;;;6.50;94.60;;;;;;5070825;28;20021;-72
2022/11/14 08:42:43;;;;;;;47.63;23.60;;;6.50;94.60;;;;;;5062850;28;20036;-73
2022/11/14 08:45:08;;;;;;;51.97;24.88;;;6.40;94.40;;;;;;5070633;28;20024;-73
2022/11/14 08:47:34;;;;;;;51.05;27.40;;;6.60;94.70;;;;;;5068725;28;20385;-72
2022/11/14 08:49:59;;;;;;;51.03;27.17;;;6.60;94.50;;;;;;5059107;28;20037;-74
2022/11/14 08:52:25;;;;;;;50.38;26.85;;;6.50;94.30;;;;;;5064234;28;20037;-72
2022/11/14 08:54:50;;;;;;;47.72;25.65;;;6.60;94.40;;;;;;5065578;28;20041;-73
2022/11/14 08:57:16;;;;;;;49.72;26.27;;;6.60;94.40;;;;;;5068852;28;20029;-71
2022/11/14 08:59:41;;;;;;;53.88;27.38;;;6.50;94.10;;;;;;5066059;28;20495;-72
2022/11/14 09:02:11;;;;;;;50.47;26.40;;;6.60;94.40;;;;;;5065867;28;20548;-71
2022/11/14 09:04:36;;;;;;;51.70;27.05;;;6.60;94.20;;;;;;5068903;28;20024;-73
2022/11/14 09:07:02;;;;;;;49.22;24.60;;;6.70;94.20;;;;;;5068478;28;20437;-72
2022/11/14 09:09:27;;;;;;;47.50;26.10;;;6.60;93.90;;;;;;5072105;28;20056;-71
2022/11/14 09:11:53;;;;;;;49.58;25.65;;;6.70;94.10;;;;;;5074791;28;20032;-71
2022/11/14 09:14:18;;;;;;;50.67;25.15;;;6.70;93.90;;;;;;5074428;28;20491;-71
2022/11/14 09:16:46;;;;;;;55.83;26.05;;;6.80;94.00;;;;;;5073274;28;20041;-70
2022/11/14 09:19:12;;;;;;;46.40;25.83;;;6.70;93.90;;;;;;5069123;28;20043;-72
2022/11/14 09:21:38;;;;;;;52.55;26.02;;;6.80;93.80;;;;;;5073611;28;20029;-68
2022/11/14 09:24:03;;;;;;;50.00;28.10;;;6.90;93.60;;;;;;5073775;28;20506;-73
2022/11/14 09:26:29;;;;;;;46.35;25.35;;;6.80;93.30;;;;;;5078121;28;20028;-71
2022/11/14 09:28:54;;;;;;;53.22;25.80;;;6.80;93.40;;;;;;5068782;28;20377;-71
2022/11/14 09:31:20;;;;;;;48.50;26.45;;;7.00;93.60;;;;;;5067191;28;20036;-69
2022/11/14 09:33:45;;;;;;;48.97;26.23;;;7.00;93.60;;;;;;5069559;28;20043;-70
2022/11/14 09:36:14;;;;;;;46.08;24.65;;;7.00;93.50;;;;;;5073665;28;20052;-70
2022/11/14 09:38:42;;;;;;;54.25;26.02;;;7.00;93.10;;;;;;5069852;28;20465;-69
2022/11/14 09:41:07;;;;;;;50.63;26.17;;;7.10;93.30;;;;;;5082911;28;20024;-68
2022/11/14 09:43:57;;;;;;;45.40;25.80;;;7.00;92.90;;;;;;5071669;28;20024;-69
2022/11/14 09:46:40;;;;;;;46.88;25.20;;;7.10;93.00;;;;;;5069998;28;20397;-70
2022/11/14 09:49:19;;;;;;;49.65;26.83;;;7.10;93.00;;;;;;5069382;28;20036;-69
2022/11/14 09:51:50;;;;;;;47.53;25.50;;;7.20;93.00;;;;;;5085353;28;20035;-70
2022/11/14 09:54:22;;;;;;;43.75;23.98;;;7.20;92.50;;;;;;5070897;28;20404;-72
2022/11/14 09:56:48;;;;;;;43.45;23.48;;;7.20;92.40;;;;;;5069221;28;20640;-69
2022/11/14 09:59:14;;;;;;;45.33;23.70;;;7.20;92.60;;;;;;5071535;28;20107;-68
2022/11/14 10:02:04;;;;;;;39.70;22.70;;;7.30;92.40;;;;;;5073127;28;20067;-70
2022/11/14 10:05:15;;;;;;;42.38;23.45;;;7.30;92.10;;;;;;5071143;28;20029;-70
2022/11/14 10:08:23;;;;;;;39.63;20.35;;;7.40;92.30;;;;;;5061990;28;20040;-71
2022/11/14 10:11:00;;;;;;;41.25;22.10;;;7.40;91.70;;;;;;5068362;28;20377;-76
2022/11/14 10:13:37;;;;;;;36.00;21.05;;;7.60;91.70;;;;;;5071029;28;21041;-71
2022/11/14 10:16:03;;;;;;;38.30;22.15;;;7.60;91.20;;;;;;5074931;28;20540;-69
2022/11/14 10:18:40;;;;;;;41.08;23.00;;;7.70;91.20;;;;;;5080403;28;20104;-70
2022/11/14 10:21:37;;;;;;;39.08;20.52;;;7.80;91.10;;;;;;5076227;28;20459;-70
2022/11/14 10:24:21;;;;;;;39.92;22.80;;;7.50;91.00;;;;;;5070300;28;20025;-69
2022/11/14 10:27:02;;;;;;;36.60;21.00;;;7.50;91.60;;;;;;5069342;28;20036;-68
2022/11/14 10:29:37;;;;;;;36.35;21.17;;;7.50;91.40;;;;;;5071262;28;20040;-70
2022/11/14 10:32:49;;;;;;;36.13;21.33;;;7.60;91.20;;;;;;5075125;28;20362;-69
2022/11/14 10:35:26;;;;;;;36.00;20.77;;;7.60;91.10;;;;;;5059223;28;20131;-70
2022/11/14 10:38:20;;;;;;;35.35;20.90;;;7.70;90.60;;;;;;5057433;28;20504;-73
2022/11/14 10:40:52;;;;;;;35.67;20.30;;;7.70;90.70;;;;;;5067988;28;20021;-70
2022/11/14 10:43:39;;;;;;;35.30;20.60;;;7.90;91.00;;;;;;5068770;28;20025;-72
2022/11/14 10:46:13;;;;;;;32.22;19.13;;;7.80;90.30;;;;;;5070102;28;20374;-69
2022/11/14 10:48:42;;;;;;;36.40;20.80;;;7.90;90.10;;;;;;5066339;28;20032;-69
2022/11/14 10:51:23;;;;;;;36.38;21.77;;;8.10;90.50;;;;;;5070043;28;20020;-70
2022/11/14 10:53:58;;;;;;;35.45;20.90;;;8.20;89.80;;;;;;5071721;28;20032;-70
2022/11/14 10:56:23;;;;;;;36.60;21.33;;;8.30;89.20;;;;;;5071079;28;20021;-69
2022/11/14 10:58:49;;;;;;;34.35;19.88;;;8.50;89.20;;;;;;5061464;28;20381;-68
2022/11/14 11:01:38;;;;;;;34.80;20.15;;;8.50;88.40;;;;;;5070614;28;20036;-68
2022/11/14 11:04:32;;;;;;;35.80;19.95;;;8.50;88.40;;;;;;5066430;28;20018;-69
2022/11/14 11:13:04;;;;;;;34.33;19.67;;;8.80;88.60;;;;;;5069566;28;20118;-69
2022/11/14 11:15:30;;;;;;;36.15;20.77;;;8.90;87.70;;;;;;5073329;28;20543;-70
2022/11/14 11:18:05;;;;;;;34.13;20.98;;;9.30;87.30;;;;;;5068061;28;20060;-69
2022/11/14 11:20:40;;;;;;;31.58;19.45;;;9.60;86.30;;;;;;5067322;28;20066;-68
2022/11/14 11:23:08;;;;;;;32.58;20.02;;;10.00;86.00;;;;;;5056469;28;20559;-69
2022/11/14 11:25:34;;;;;;;32.03;19.58;;;10.00;85.10;;;;;;5069403;28;20036;-69
2022/11/14 11:28:20;;;;;;;31.17;19.83;;;9.60;84.10;;;;;;5068810;28;20047;-72
2022/11/14 11:31:01;;;;;;;30.25;19.75;;;9.80;84.20;;;;;;5059827;28;20060;-70
2022/11/14 11:33:31;;;;;;;30.10;19.75;;;9.90;84.10;;;;;;5062816;28;20500;-70
2022/11/14 11:36:15;;;;;;;33.38;19.65;;;10.10;84.20;;;;;;5067009;28;20040;-72
2022/11/14 11:38:41;;;;;;;33.47;20.30;;;9.80;83.40;;;;;;5064645;28;20027;-71
2022/11/14 11:41:32;;;;;;;27.90;18.77;;;10.30;84.00;;;;;;5069855;28;20025;-69
2022/11/14 11:44:02;;;;;;;32.38;20.02;;;10.40;82.70;;;;;;5067640;28;20112;-71
2022/11/14 11:46:43;;;;;;;31.08;19.85;;;10.30;83.10;;;;;;5063518;28;20056;-73
2022/11/14 11:49:26;;;;;;;28.95;18.27;;;10.00;82.90;;;;;;5066275;28;20032;-73
2022/11/14 11:51:55;;;;;;;26.35;17.70;;;10.10;83.60;;;;;;5067782;28;20041;-71
2022/11/14 11:54:34;;;;;;;27.27;17.90;;;10.50;82.50;;;;;;5068412;28;20492;-74
2022/11/14 11:57:11;;;;;;;30.50;19.17;;;10.50;81.60;;;;;;5067919;28;20037;-73
2022/11/14 12:00:00;;;;;;;30.88;19.20;;;10.90;82.00;;;;;;5070126;28;20035;-71
2022/11/14 12:02:26;;;;;;;30.67;19.27;;;10.70;81.00;;;;;;5067722;28;20033;-70
2022/11/14 12:04:54;;;;;;;27.83;19.48;;;10.50;81.90;;;;;;5063761;28;20041;-72
2022/11/14 12:07:42;;;;;;;26.92;17.80;;;10.50;81.90;;;;;;5068970;28;20086;-71
2022/11/14 12:10:20;;;;;;;30.85;18.60;;;10.50;82.50;;;;;;5066902;28;20086;-70
2022/11/14 12:13:13;;;;;;;32.42;18.73;;;10.90;82.10;;;;;;5067866;28;20036;-71
2022/11/14 12:16:27;;;;;;;27.77;18.00;;;11.40;81.60;;;;;;5062499;28;20118;-70
2022/11/14 12:19:05;;;;;;;26.13;17.27;;;11.50;79.60;;;;;;5067135;28;20480;-69
2022/11/14 12:22:00;;;;;;;26.17;16.70;;;11.60;79.50;;;;;;5067368;28;20039;-70
2022/11/14 12:24:52;;;;;;;25.73;16.13;;;11.60;78.50;;;;;;5064723;28;20034;-70
2022/11/14 12:27:48;;;;;;;24.42;16.80;;;11.70;78.80;;;;;;5066761;28;20029;-70
2022/11/14 12:30:22;;;;;;;26.25;17.00;;;11.90;78.70;;;;;;5060905;28;20032;-69
2022/11/14 12:32:56;;;;;;;26.48;16.60;;;12.00;77.80;;;;;;5069191;28;20025;-70
2022/11/14 12:35:47;;;;;;;25.85;15.65;;;11.70;76.80;;;;;;5055445;28;20440;-72
2022/11/14 12:38:18;;;;;;;25.13;15.50;;;11.80;77.80;;;;;;5056337;28;20048;-70
2022/11/14 12:40:54;;;;;;;23.73;15.55;;;11.50;77.70;;;;;;5071033;28;20415;-69
2022/11/14 12:43:35;;;;;;;26.02;15.73;;;11.50;78.70;;;;;;5056477;28;20037;-69
2022/11/14 12:46:02;;;;;;;;;;;11.50;78.60;;;;;;5067136;28;20051;-69
2022/11/14 12:48:32;;;;;;;25.67;15.73;;;11.40;77.60;;;;;;5067650;28;19912;-70
2022/11/14 12:50:59;;;;;;;23.58;15.45;;;11.80;78.40;;;;;;5078792;28;20036;-71